createdAt,value
2018-06-11T00:00:41.172Z,17.55
2018-06-11T00:01:41.177Z,17.53
2018-06-11T00:02:41.181Z,17.59
2018-06-11T00:03:41.183Z,17.54
2018-06-11T00:04:41.186Z,17.54
2018-06-11T00:05:41.197Z,17.62
2018-06-11T00:06:41.192Z,17.48
2018-06-11T00:07:41.203Z,17.47
2018-06-11T00:08:41.200Z,17.41
2018-06-11T00:09:41.204Z,17.43
2018-06-11T00:10:41.209Z,17.35
2018-06-11T00:11:41.215Z,17.40
2018-06-11T00:12:41.216Z,17.33
2018-06-11T00:13:41.218Z,17.22
2018-06-11T00:14:41.221Z,17.20
2018-06-11T00:15:41.228Z,17.25
2018-06-11T00:16:41.228Z,17.23
2018-06-11T00:17:41.232Z,17.11
2018-06-11T00:18:41.235Z,17.23
2018-06-11T00:19:41.240Z,17.22
2018-06-11T00:20:41.240Z,17.28
2018-06-11T00:21:41.244Z,17.26
2018-06-11T00:22:41.250Z,17.23
2018-06-11T00:23:41.252Z,17.25
2018-06-11T00:24:41.255Z,17.25
2018-06-11T00:25:41.260Z,17.41
2018-06-11T00:26:41.261Z,17.33
2018-06-11T00:27:41.266Z,17.36
2018-06-11T00:28:41.265Z,17.38
2018-06-11T00:29:41.270Z,17.25
2018-06-11T00:30:41.277Z,17.28
2018-06-11T00:31:41.279Z,17.36
2018-06-11T00:32:41.296Z,17.23
2018-06-11T00:33:41.284Z,17.25
2018-06-11T00:34:41.288Z,17.23
2018-06-11T00:35:41.291Z,17.10
2018-06-11T00:36:41.293Z,17.10
2018-06-11T00:37:41.319Z,17.06
2018-06-11T00:38:41.299Z,17.08
2018-06-11T00:39:41.304Z,17.08
2018-06-11T00:40:41.308Z,17.13
2018-06-11T00:41:41.310Z,17.08
2018-06-11T00:42:41.315Z,17.15
2018-06-11T00:43:41.320Z,17.15
2018-06-11T00:44:41.331Z,17.23
2018-06-11T00:45:41.322Z,17.18
2018-06-11T00:46:41.325Z,17.20
2018-06-11T00:47:41.328Z,17.23
2018-06-11T00:48:41.358Z,17.35
2018-06-11T00:49:41.335Z,17.35
2018-06-11T00:50:41.340Z,17.40
2018-06-11T00:51:42.938Z,17.32
2018-06-11T00:52:41.345Z,17.28
2018-06-11T00:53:41.351Z,17.35
2018-06-11T00:54:41.350Z,17.28
2018-06-11T00:55:41.376Z,17.30
2018-06-11T00:56:41.357Z,17.32
2018-06-11T00:57:41.359Z,17.08
2018-06-11T00:58:41.364Z,17.10
2018-06-11T00:59:41.367Z,17.13
2018-06-11T01:00:41.392Z,17.08
2018-06-11T01:01:41.373Z,17.08
2018-06-11T01:02:41.377Z,17.08
2018-06-11T01:03:41.382Z,17.06
2018-06-11T01:04:41.383Z,17.04
2018-06-11T01:05:41.388Z,17.06
2018-06-11T01:06:41.389Z,17.07
2018-06-11T01:07:41.395Z,16.99
2018-06-11T01:08:41.395Z,17.00
2018-06-11T01:09:41.400Z,17.00
2018-06-11T01:10:41.407Z,17.06
2018-06-11T01:11:41.409Z,17.08
2018-06-11T01:12:41.438Z,17.15
2018-06-11T01:13:41.416Z,17.13
2018-06-11T01:14:41.417Z,17.10
2018-06-11T01:15:41.420Z,17.15
2018-06-11T01:16:41.422Z,17.10
2018-06-11T01:17:41.428Z,17.15
2018-06-11T01:18:41.430Z,17.25
2018-06-11T01:19:41.436Z,17.22
2018-06-11T01:20:41.434Z,17.23
2018-06-11T01:21:41.442Z,17.26
2018-06-11T01:22:41.443Z,17.35
2018-06-11T01:23:41.445Z,17.35
2018-06-11T01:24:41.451Z,17.35
2018-06-11T01:25:41.453Z,17.35
2018-06-11T01:26:41.458Z,17.46
2018-06-11T01:27:41.474Z,17.38
2018-06-11T01:28:41.469Z,17.43
2018-06-11T01:29:41.466Z,17.46
2018-06-11T01:30:41.466Z,17.46
2018-06-11T01:31:41.472Z,17.33
2018-06-11T01:32:41.475Z,17.36
2018-06-11T01:33:41.480Z,17.32
2018-06-11T01:34:41.484Z,17.48
2018-06-11T01:35:41.489Z,17.48
2018-06-11T01:36:41.505Z,17.41
2018-06-11T01:37:41.492Z,17.38
2018-06-11T01:38:41.497Z,17.46
2018-06-11T01:39:41.498Z,17.36
2018-06-11T01:40:41.505Z,17.47
2018-06-11T01:41:41.505Z,17.46
2018-06-11T01:42:41.532Z,17.43
2018-06-11T01:43:41.522Z,17.43
2018-06-11T01:44:41.511Z,17.44
2018-06-11T01:45:44.432Z,17.41
2018-06-11T01:46:41.538Z,17.38
2018-06-11T01:47:41.525Z,17.51
2018-06-11T01:48:41.528Z,17.30
2018-06-11T01:49:41.531Z,17.41
2018-06-11T01:50:41.546Z,17.41
2018-06-11T01:51:41.536Z,17.41
2018-06-11T01:52:41.541Z,17.46
2018-06-11T01:53:41.547Z,17.47
2018-06-11T01:54:41.566Z,17.44
2018-06-11T01:55:41.556Z,17.46
2018-06-11T01:56:41.555Z,17.47
2018-06-11T01:57:41.559Z,17.43
2018-06-11T01:58:41.562Z,17.36
2018-06-11T01:59:41.566Z,17.36
2018-06-11T02:00:41.567Z,17.43
2018-06-11T02:01:41.574Z,17.44
2018-06-11T02:02:41.576Z,17.36
2018-06-11T02:03:41.576Z,17.29
2018-06-11T02:04:41.587Z,17.36
2018-06-11T02:05:41.587Z,17.33
2018-06-11T02:06:41.590Z,17.28
2018-06-11T02:07:41.595Z,17.20
2018-06-11T02:08:41.599Z,17.33
2018-06-11T02:09:41.598Z,17.20
2018-06-11T02:10:41.610Z,17.29
2018-06-11T02:11:41.604Z,17.23
2018-06-11T02:12:41.609Z,17.22
2018-06-11T02:13:41.616Z,17.25
2018-06-11T02:14:41.616Z,17.26
2018-06-11T02:15:41.619Z,17.23
2018-06-11T02:16:41.620Z,17.25
2018-06-11T02:17:41.625Z,17.25
2018-06-11T02:18:41.627Z,17.25
2018-06-11T02:19:41.630Z,17.23
2018-06-11T02:20:41.646Z,17.25
2018-06-11T02:21:41.642Z,17.22
2018-06-11T02:22:41.644Z,17.20
2018-06-11T02:23:41.642Z,17.25
2018-06-11T02:24:41.655Z,17.20
2018-06-11T02:25:41.649Z,17.25
2018-06-11T02:26:41.653Z,17.25
2018-06-11T02:27:41.654Z,17.25
2018-06-11T02:28:41.660Z,17.33
2018-06-11T02:29:41.687Z,17.20
2018-06-11T02:30:41.669Z,17.20
2018-06-11T02:31:41.674Z,17.22
2018-06-11T02:32:41.674Z,17.25
2018-06-11T02:33:41.677Z,17.28
2018-06-11T02:34:41.680Z,17.25
2018-06-11T02:35:41.682Z,17.23
2018-06-11T02:36:41.686Z,17.22
2018-06-11T02:37:41.689Z,17.22
2018-06-11T02:38:41.693Z,17.23
2018-06-11T02:39:41.700Z,17.22
2018-06-11T02:40:41.703Z,17.23
2018-06-11T02:41:41.701Z,17.26
2018-06-11T02:42:41.707Z,17.33
2018-06-11T02:43:41.708Z,17.17
2018-06-11T02:44:41.714Z,17.23
2018-06-11T02:45:41.719Z,17.28
2018-06-11T02:46:41.724Z,17.29
2018-06-11T02:47:41.720Z,17.29
2018-06-11T02:48:41.724Z,17.23
2018-06-11T02:49:41.727Z,17.23
2018-06-11T02:50:41.728Z,17.35
2018-06-11T02:51:41.733Z,17.41
2018-06-11T02:52:41.777Z,17.30
2018-06-11T02:53:41.741Z,17.35
2018-06-11T02:54:41.840Z,17.35
2018-06-11T02:55:41.745Z,17.36
2018-06-11T02:56:41.802Z,17.35
2018-06-11T02:57:41.753Z,17.44
2018-06-11T02:58:41.756Z,17.35
2018-06-11T02:59:41.760Z,17.47
2018-06-11T03:00:41.764Z,17.43
2018-06-11T03:01:41.765Z,17.48
2018-06-11T03:02:41.769Z,17.46
2018-06-11T03:03:41.773Z,17.44
2018-06-11T03:04:41.777Z,17.48
2018-06-11T03:05:41.778Z,17.46
2018-06-11T03:06:41.782Z,17.48
2018-06-11T03:07:41.786Z,17.47
2018-06-11T03:08:41.788Z,17.44
2018-06-11T03:09:41.791Z,17.44
2018-06-11T03:10:41.794Z,17.48
2018-06-11T03:11:41.796Z,17.50
2018-06-11T03:12:41.819Z,17.46
2018-06-11T03:13:41.807Z,17.48
2018-06-11T03:14:41.808Z,17.46
2018-06-11T03:15:41.817Z,17.48
2018-06-11T03:16:41.840Z,17.48
2018-06-11T03:17:41.845Z,17.46
2018-06-11T03:18:41.864Z,17.44
2018-06-11T03:19:41.822Z,17.43
2018-06-11T03:20:41.881Z,17.51
2018-06-11T03:21:41.830Z,17.62
2018-06-11T03:22:41.840Z,17.62
2018-06-11T03:23:41.858Z,17.57
2018-06-11T03:24:41.871Z,17.62
2018-06-11T03:25:41.845Z,17.53
2018-06-11T03:26:41.849Z,17.62
2018-06-11T03:27:41.849Z,17.57
2018-06-11T03:28:41.853Z,17.53
2018-06-11T03:29:41.861Z,17.53
2018-06-11T03:30:41.877Z,17.54
2018-06-11T03:31:41.863Z,17.66
2018-06-11T03:32:41.865Z,17.62
2018-06-11T03:33:41.869Z,17.57
2018-06-11T03:34:41.873Z,17.59
2018-06-11T03:35:41.911Z,17.62
2018-06-11T03:36:41.879Z,17.62
2018-06-11T03:37:41.883Z,17.63
2018-06-11T03:38:41.891Z,17.70
2018-06-11T03:39:41.889Z,17.66
2018-06-11T03:40:41.893Z,17.67
2018-06-11T03:41:41.895Z,17.69
2018-06-11T03:42:41.900Z,17.69
2018-06-11T03:43:41.903Z,17.64
2018-06-11T03:44:41.905Z,17.66
2018-06-11T03:45:41.910Z,17.63
2018-06-11T03:46:41.916Z,17.50
2018-06-11T03:47:41.919Z,17.55
2018-06-11T03:48:41.918Z,17.53
2018-06-11T03:49:41.923Z,17.57
2018-06-11T03:50:41.945Z,17.59
2018-06-11T03:51:41.983Z,17.51
2018-06-11T03:52:41.973Z,17.54
2018-06-11T03:53:41.941Z,17.53
2018-06-11T03:54:41.941Z,17.54
2018-06-11T03:55:41.956Z,17.59
2018-06-11T03:56:41.946Z,17.62
2018-06-11T03:57:41.948Z,17.63
2018-06-11T03:58:41.953Z,17.53
2018-06-11T03:59:41.956Z,17.53
2018-06-11T04:00:41.979Z,17.69
2018-06-11T04:01:41.978Z,17.54
2018-06-11T04:02:41.966Z,17.54
2018-06-11T04:03:41.970Z,17.53
2018-06-11T04:04:41.975Z,17.67
2018-06-11T04:05:41.978Z,17.59
2018-06-11T04:06:41.980Z,17.64
2018-06-11T04:07:41.989Z,17.53
2018-06-11T04:08:41.988Z,17.66
2018-06-11T04:09:41.998Z,17.57
2018-06-11T04:10:42.035Z,17.59
2018-06-11T04:11:41.999Z,17.59
2018-06-11T04:12:42.002Z,17.53
2018-06-11T04:13:42.007Z,17.53
2018-06-11T04:14:42.008Z,17.53
2018-06-11T04:15:42.012Z,17.55
2018-06-11T04:16:42.020Z,17.64
2018-06-11T04:17:42.034Z,17.55
2018-06-11T04:18:42.021Z,17.53
2018-06-11T04:19:42.024Z,17.59
2018-06-11T04:20:42.027Z,17.57
2018-06-11T04:21:42.030Z,17.59
2018-06-11T04:22:42.038Z,17.57
2018-06-11T04:23:42.039Z,17.63
2018-06-11T04:24:42.056Z,17.67
2018-06-11T04:25:42.044Z,17.71
2018-06-11T04:26:42.048Z,17.70
2018-06-11T04:27:42.050Z,17.69
2018-06-11T04:28:42.055Z,17.70
2018-06-11T04:29:42.060Z,17.74
2018-06-11T04:30:42.139Z,17.71
2018-06-11T04:31:42.072Z,17.78
2018-06-11T04:32:42.496Z,17.82
2018-06-11T04:33:42.074Z,17.82
2018-06-11T04:34:42.076Z,17.88
2018-06-11T04:35:42.078Z,17.89
2018-06-11T04:36:42.082Z,17.84
2018-06-11T04:37:42.087Z,17.91
2018-06-11T04:38:42.090Z,17.92
2018-06-11T04:39:42.141Z,17.87
2018-06-11T04:40:42.097Z,17.91
2018-06-11T04:41:42.100Z,17.87
2018-06-11T04:42:42.102Z,17.85
2018-06-11T04:43:42.107Z,17.95
2018-06-11T04:44:42.111Z,17.97
2018-06-11T04:45:42.113Z,17.95
2018-06-11T04:46:42.126Z,18.02
2018-06-11T04:47:42.120Z,17.97
2018-06-11T04:48:42.141Z,18.02
2018-06-11T04:49:42.128Z,18.04
2018-06-11T04:50:42.129Z,18.10
2018-06-11T04:51:42.134Z,18.06
2018-06-11T04:52:42.152Z,18.04
2018-06-11T04:53:42.142Z,18.06
2018-06-11T04:54:42.145Z,18.02
2018-06-11T04:55:42.148Z,18.07
2018-06-11T04:56:42.178Z,18.21
2018-06-11T04:57:42.157Z,18.24
2018-06-11T04:58:42.158Z,18.21
2018-06-11T04:59:42.162Z,18.19
2018-06-11T05:00:42.544Z,18.21
2018-06-11T05:01:42.184Z,18.18
2018-06-11T05:02:42.178Z,18.18
2018-06-11T05:03:42.177Z,18.09
2018-06-11T05:04:42.185Z,18.19
2018-06-11T05:05:42.188Z,18.15
2018-06-11T05:06:42.215Z,18.15
2018-06-11T05:07:42.192Z,18.21
2018-06-11T05:08:42.207Z,18.22
2018-06-11T05:09:42.201Z,18.28
2018-06-11T05:10:42.226Z,18.28
2018-06-11T05:11:42.207Z,18.29
2018-06-11T05:12:42.213Z,18.33
2018-06-11T05:13:42.215Z,18.33
2018-06-11T05:14:42.218Z,18.33
2018-06-11T05:15:42.226Z,18.33
2018-06-11T05:16:42.230Z,18.29
2018-06-11T05:17:42.230Z,18.42
2018-06-11T05:18:42.413Z,18.36
2018-06-11T05:19:42.241Z,18.33
2018-06-11T05:20:42.243Z,18.31
2018-06-11T05:21:42.259Z,18.36
2018-06-11T05:22:42.255Z,18.37
2018-06-11T05:23:42.255Z,18.40
2018-06-11T05:24:42.257Z,18.43
2018-06-11T05:25:42.262Z,18.49
2018-06-11T05:26:42.285Z,18.44
2018-06-11T05:27:42.270Z,18.40
2018-06-11T05:28:42.290Z,18.39
2018-06-11T05:29:42.275Z,18.47
2018-06-11T05:30:42.280Z,18.46
2018-06-11T05:31:42.295Z,18.46
2018-06-11T05:32:42.290Z,18.46
2018-06-11T05:33:42.298Z,18.54
2018-06-11T05:34:42.338Z,18.50
2018-06-11T05:35:42.300Z,18.49
2018-06-11T05:36:42.304Z,18.40
2018-06-11T05:37:42.310Z,18.47
2018-06-11T05:38:42.320Z,18.46
2018-06-11T05:39:42.318Z,18.57
2018-06-11T05:40:42.320Z,18.64
2018-06-11T05:41:42.323Z,18.59
2018-06-11T05:42:42.328Z,18.65
2018-06-11T05:43:42.339Z,18.68
2018-06-11T05:44:42.336Z,18.58
2018-06-11T05:45:42.341Z,18.57
2018-06-11T05:46:42.348Z,18.62
2018-06-11T05:47:42.348Z,18.77
2018-06-11T05:48:42.352Z,18.82
2018-06-11T05:49:44.966Z,18.77
2018-06-11T05:50:42.365Z,18.87
2018-06-11T05:51:42.437Z,18.87
2018-06-11T05:52:42.413Z,18.94
2018-06-11T05:53:42.383Z,18.98
2018-06-11T05:54:42.446Z,18.97
2018-06-11T05:55:42.385Z,18.99
2018-06-11T05:56:42.416Z,19.02
2018-06-11T05:57:42.425Z,19.01
2018-06-11T05:58:42.412Z,18.97
2018-06-11T05:59:42.414Z,19.01
2018-06-11T06:00:42.401Z,19.10
2018-06-11T06:01:42.405Z,18.99
2018-06-11T06:02:42.412Z,19.06
2018-06-11T06:03:42.414Z,19.02
2018-06-11T06:04:42.419Z,19.02
2018-06-11T06:05:42.424Z,19.01
2018-06-11T06:06:42.426Z,18.97
2018-06-11T06:07:42.431Z,18.86
2018-06-11T06:08:42.484Z,18.87
2018-06-11T06:09:42.440Z,18.92
2018-06-11T06:10:42.446Z,18.97
2018-06-11T06:11:42.472Z,19.05
2018-06-11T06:12:42.478Z,18.99
2018-06-11T06:13:42.467Z,18.97
2018-06-11T06:14:42.461Z,19.02
2018-06-11T06:15:42.466Z,18.99
2018-06-11T06:16:42.473Z,19.10
2018-06-11T06:17:42.474Z,19.11
2018-06-11T06:18:42.485Z,19.06
2018-06-11T06:19:42.522Z,19.17
2018-06-11T06:20:42.487Z,19.14
2018-06-11T06:21:42.494Z,19.18
2018-06-11T06:22:42.500Z,19.13
2018-06-11T06:23:42.506Z,19.15
2018-06-11T06:24:42.535Z,19.13
2018-06-11T06:25:42.507Z,19.14
2018-06-11T06:26:42.535Z,19.08
2018-06-11T06:27:42.524Z,19.15
2018-06-11T06:28:42.521Z,19.13
2018-06-11T06:29:42.537Z,19.14
2018-06-11T06:30:42.529Z,19.01
2018-06-11T06:31:42.535Z,19.01
2018-06-11T06:32:42.540Z,18.99
2018-06-11T06:33:42.570Z,19.11
2018-06-11T06:34:42.564Z,18.90
2018-06-11T06:35:42.550Z,18.94
2018-06-11T06:36:42.590Z,18.92
2018-06-11T06:37:42.560Z,18.94
2018-06-11T06:38:42.564Z,18.77
2018-06-11T06:39:42.570Z,18.86
2018-06-11T06:40:42.571Z,18.83
2018-06-11T06:41:42.576Z,18.79
2018-06-11T06:42:42.578Z,18.76
2018-06-11T06:43:42.584Z,18.68
2018-06-11T06:44:42.592Z,18.67
2018-06-11T06:45:42.597Z,18.65
2018-06-11T06:46:42.599Z,18.68
2018-06-11T06:47:42.630Z,18.65
2018-06-11T06:48:42.604Z,18.59
2018-06-11T06:49:42.613Z,18.47
2018-06-11T06:50:42.634Z,18.49
2018-06-11T06:51:42.621Z,18.47
2018-06-11T06:52:42.622Z,18.62
2018-06-11T06:53:42.638Z,18.58
2018-06-11T06:54:42.646Z,18.59
2018-06-11T06:55:42.634Z,18.59
2018-06-11T06:56:42.661Z,18.49
2018-06-11T06:57:42.650Z,18.50
2018-06-11T06:58:42.648Z,18.50
2018-06-11T06:59:42.660Z,18.44
2018-06-11T07:00:42.654Z,18.46
2018-06-11T07:01:42.657Z,18.44
2018-06-11T07:02:42.664Z,18.47
2018-06-11T07:03:42.667Z,18.34
2018-06-11T07:04:42.671Z,18.33
2018-06-11T07:05:42.675Z,18.28
2018-06-11T07:06:42.681Z,18.27
2018-06-11T07:07:42.682Z,18.28
2018-06-11T07:08:42.693Z,18.29
2018-06-11T07:09:42.728Z,18.36
2018-06-11T07:10:42.693Z,18.40
2018-06-11T07:11:42.699Z,18.42
2018-06-11T07:12:42.706Z,18.42
2018-06-11T07:13:42.778Z,18.39
2018-06-11T07:14:42.710Z,18.28
2018-06-11T07:15:42.752Z,18.36
2018-06-11T07:16:42.718Z,18.28
2018-06-11T07:17:42.724Z,18.28
2018-06-11T07:18:42.763Z,18.33
2018-06-11T07:19:42.728Z,18.25
2018-06-11T07:20:42.736Z,18.36
2018-06-11T07:21:42.741Z,18.36
2018-06-11T07:22:42.762Z,18.31
2018-06-11T07:23:42.746Z,18.27
2018-06-11T07:24:42.751Z,18.28
2018-06-11T07:25:42.765Z,18.33
2018-06-11T07:26:42.760Z,18.37
2018-06-11T07:27:42.876Z,18.46
2018-06-11T07:28:42.764Z,18.52
2018-06-11T07:29:44.497Z,18.50
2018-06-11T07:30:42.774Z,18.54
2018-06-11T07:31:42.784Z,18.61
2018-06-11T07:32:42.785Z,18.62
2018-06-11T07:33:42.843Z,18.67
2018-06-11T07:34:42.791Z,18.76
2018-06-11T07:35:42.792Z,18.74
2018-06-11T07:36:42.803Z,18.79
2018-06-11T07:37:42.806Z,18.77
2018-06-11T07:38:44.503Z,18.79
2018-06-11T07:39:42.814Z,18.72
2018-06-11T07:40:42.815Z,18.72
2018-06-11T07:41:42.822Z,18.68
2018-06-11T07:42:42.832Z,18.68
2018-06-11T07:43:42.842Z,18.68
2018-06-11T07:44:42.846Z,18.68
2018-06-11T07:45:42.846Z,18.68
2018-06-11T07:46:42.839Z,18.70
2018-06-11T07:47:42.843Z,18.76
2018-06-11T07:48:42.846Z,18.70
2018-06-11T07:49:42.850Z,18.72
2018-06-11T07:50:42.854Z,18.79
2018-06-11T07:51:42.866Z,18.68
2018-06-11T07:52:42.862Z,18.77
2018-06-11T07:53:42.870Z,18.83
2018-06-11T07:54:42.878Z,18.83
2018-06-11T07:55:42.897Z,18.83
2018-06-11T07:56:42.879Z,18.87
2018-06-11T07:57:42.884Z,18.86
2018-06-11T07:58:42.907Z,18.90
2018-06-11T07:59:42.892Z,18.90
2018-06-11T08:00:42.925Z,18.87
2018-06-11T08:01:42.921Z,18.92
2018-06-11T08:02:42.912Z,18.76
2018-06-11T08:03:42.913Z,18.76
2018-06-11T08:04:42.916Z,18.70
2018-06-11T08:05:42.936Z,18.70
2018-06-11T08:06:42.920Z,18.62
2018-06-11T08:07:42.933Z,18.59
2018-06-11T08:08:42.928Z,18.62
2018-06-11T08:09:42.935Z,18.65
2018-06-11T08:10:42.937Z,18.59
2018-06-11T08:11:42.940Z,18.58
2018-06-11T08:12:42.945Z,18.62
2018-06-11T08:13:43.036Z,18.55
2018-06-11T08:14:42.954Z,18.47
2018-06-11T08:15:42.962Z,18.46
2018-06-11T08:16:42.962Z,18.50
2018-06-11T08:17:42.966Z,18.44
2018-06-11T08:18:42.970Z,18.42
2018-06-11T08:19:42.976Z,18.44
2018-06-11T08:20:42.984Z,18.50
2018-06-11T08:21:42.982Z,18.37
2018-06-11T08:22:42.992Z,18.36
2018-06-11T08:23:42.992Z,18.36
2018-06-11T08:24:42.996Z,18.25
2018-06-11T08:25:42.998Z,18.31
2018-06-11T08:26:43.835Z,18.29
2018-06-11T08:27:45.268Z,18.27
2018-06-11T08:28:43.249Z,18.25
2018-06-11T08:29:43.061Z,18.27
2018-06-11T08:30:44.209Z,18.34
2018-06-11T08:31:43.412Z,18.46
2018-06-11T08:32:43.143Z,18.34
2018-06-11T08:33:43.158Z,18.36
2018-06-11T08:34:43.044Z,18.34
2018-06-11T08:35:43.039Z,18.42
2018-06-11T08:36:43.042Z,18.46
2018-06-11T08:37:43.051Z,18.40
2018-06-11T08:38:43.051Z,18.54
2018-06-11T08:39:43.057Z,18.44
2018-06-11T08:40:43.072Z,18.44
2018-06-11T08:41:43.063Z,18.44
2018-06-11T08:42:45.022Z,18.43
2018-06-11T08:43:43.073Z,18.46
2018-06-11T08:44:43.075Z,18.44
2018-06-11T08:45:43.078Z,18.42
2018-06-11T08:46:43.097Z,18.49
2018-06-11T08:47:43.086Z,18.47
2018-06-11T08:48:43.090Z,18.57
2018-06-11T08:49:43.099Z,18.57
2018-06-11T08:50:43.099Z,18.64
2018-06-11T08:51:43.101Z,18.57
2018-06-11T08:52:46.031Z,18.59
2018-06-11T08:53:43.126Z,18.46
2018-06-11T08:54:43.122Z,18.36
2018-06-11T08:55:43.119Z,18.28
2018-06-11T08:56:43.121Z,18.21
2018-06-11T08:57:43.129Z,18.15
2018-06-11T08:58:43.131Z,18.06
2018-06-11T08:59:43.138Z,18.09
2018-06-11T09:00:43.140Z,18.07
2018-06-11T09:01:43.141Z,18.10
2018-06-11T09:02:50.613Z,18.02
2018-06-11T09:04:36.076Z,18.07
2018-06-11T09:05:36.041Z,18.09
2018-06-11T09:07:29.167Z,18.09
2018-06-11T09:08:28.940Z,18.18
2018-06-11T09:10:22.150Z,18.15
2018-06-11T09:11:21.872Z,18.24
2018-06-11T09:13:14.999Z,18.24
2018-06-11T09:14:14.791Z,18.34
2018-06-11T09:16:07.899Z,18.17
2018-06-11T09:17:07.690Z,18.17
2018-06-11T09:19:00.799Z,18.04
2018-06-11T09:20:00.478Z,17.97
2018-06-11T09:21:53.662Z,17.88
2018-06-11T09:22:53.487Z,17.88
2018-06-11T09:24:46.536Z,17.92
2018-06-11T09:25:46.270Z,17.85
2018-06-11T09:27:39.486Z,17.89
2018-06-11T09:28:39.095Z,18.09
2018-06-11T09:30:32.356Z,18.17
2018-06-11T09:31:32.075Z,18.09
2018-06-11T09:33:25.078Z,18.24
2018-06-11T09:34:24.924Z,18.19
2018-06-11T09:36:18.800Z,18.03
2018-06-11T09:37:18.779Z,18.09
2018-06-11T09:39:11.839Z,18.10
2018-06-11T09:40:11.687Z,18.06
2018-06-11T09:42:05.440Z,18.18
2018-06-11T09:43:05.412Z,18.18
2018-06-11T09:44:58.028Z,18.21
2018-06-11T09:45:57.974Z,18.22
2018-06-11T09:47:51.870Z,18.25
2018-06-11T09:48:52.541Z,18.27
2018-06-11T09:49:51.608Z,18.29
2018-06-11T09:50:51.592Z,18.28
2018-06-11T09:51:51.929Z,18.31
2018-06-11T09:52:51.623Z,18.27
2018-06-11T09:53:51.596Z,18.27
2018-06-11T09:54:51.593Z,18.22
2018-06-11T09:55:51.637Z,18.29
2018-06-11T09:56:51.603Z,18.34
2018-06-11T09:57:51.613Z,18.29
2018-06-11T09:58:51.637Z,18.28
2018-06-11T09:59:51.528Z,18.19
2018-06-11T10:00:51.443Z,18.09
2018-06-11T10:01:53.345Z,17.95
2018-06-11T10:02:51.589Z,17.97
2018-06-11T10:03:51.625Z,17.99
2018-06-11T10:04:51.583Z,17.92
2018-06-11T10:05:51.617Z,18.03
2018-06-11T10:06:51.606Z,17.99
2018-06-11T10:07:51.620Z,18.04
2018-06-11T10:08:51.597Z,18.12
2018-06-11T10:09:51.605Z,18.06
2018-06-11T10:10:51.616Z,18.12
2018-06-11T10:11:51.559Z,18.02
2018-06-11T10:12:51.554Z,17.97
2018-06-11T10:13:51.565Z,18.07
2018-06-11T10:14:51.537Z,17.95
2018-06-11T10:15:51.616Z,18.12
2018-06-11T10:16:51.548Z,18.17
2018-06-11T10:17:51.613Z,18.25
2018-06-11T10:18:51.616Z,18.27
2018-06-11T10:19:51.633Z,18.27
2018-06-11T10:20:51.686Z,18.22
2018-06-11T10:21:51.682Z,18.25
2018-06-11T10:22:51.619Z,18.22
2018-06-11T10:23:51.630Z,18.28
2018-06-11T10:24:51.574Z,18.19
2018-06-11T10:25:51.531Z,18.28
2018-06-11T10:26:51.551Z,18.22
2018-06-11T10:27:51.605Z,18.27
2018-06-11T10:28:51.561Z,18.37
2018-06-11T10:29:51.597Z,18.46
2018-06-11T10:30:51.576Z,18.49
2018-06-11T10:31:51.579Z,18.55
2018-06-11T10:32:51.582Z,18.49
2018-06-11T10:33:51.599Z,18.52
2018-06-11T10:34:51.589Z,18.59
2018-06-11T10:35:51.601Z,18.70
2018-06-11T10:36:51.656Z,18.62
2018-06-11T10:37:51.596Z,18.64
2018-06-11T10:38:51.622Z,18.52
2018-06-11T10:39:51.592Z,18.43
2018-06-11T10:40:59.162Z,18.44
2018-06-11T10:42:45.317Z,18.33
2018-06-11T10:43:44.943Z,18.27
2018-06-11T10:44:44.965Z,18.27
2018-06-11T10:45:45.241Z,18.29
2018-06-11T10:46:44.937Z,18.36
2018-06-11T10:47:44.943Z,18.28
2018-06-11T10:48:44.950Z,18.33
2018-06-11T10:49:44.954Z,18.27
2018-06-11T10:50:44.970Z,18.31
2018-06-11T10:51:44.961Z,18.24
2018-06-11T10:52:44.959Z,18.24
2018-06-11T10:53:44.965Z,18.27
2018-06-11T10:54:44.973Z,18.25
2018-06-11T10:55:44.975Z,18.22
2018-06-11T10:56:44.978Z,18.27
2018-06-11T10:57:44.987Z,18.28
2018-06-11T10:58:45.003Z,18.22
2018-06-11T10:59:44.990Z,18.28
2018-06-11T11:00:45.011Z,18.24
2018-06-11T11:01:44.997Z,18.25
2018-06-11T11:02:45.028Z,18.22
2018-06-11T11:03:45.022Z,18.17
2018-06-11T11:04:45.009Z,18.10
2018-06-11T11:05:45.037Z,18.17
2018-06-11T11:06:45.020Z,18.18
2018-06-11T11:07:45.019Z,18.19
2018-06-11T11:08:45.048Z,18.12
2018-06-11T11:09:45.027Z,18.15
2018-06-11T11:10:47.964Z,18.07
2018-06-11T11:11:45.107Z,18.10
2018-06-11T11:12:45.046Z,18.09
2018-06-11T11:13:45.042Z,18.04
2018-06-11T11:14:45.046Z,18.07
2018-06-11T11:15:45.053Z,18.07
2018-06-11T11:16:45.058Z,18.07
2018-06-11T11:17:45.079Z,18.18
2018-06-11T11:18:45.066Z,18.19
2018-06-11T11:19:45.068Z,18.13
2018-06-11T11:20:45.067Z,18.17
2018-06-11T11:21:45.074Z,18.09
2018-06-11T11:22:45.095Z,18.27
2018-06-11T11:23:45.084Z,18.36
2018-06-11T11:24:45.083Z,18.29
2018-06-11T11:25:45.090Z,18.27
2018-06-11T11:26:45.100Z,18.36
2018-06-11T11:27:45.096Z,18.28
2018-06-11T11:28:45.103Z,18.33
2018-06-11T11:29:45.104Z,18.36
2018-06-11T11:30:52.632Z,18.34
2018-06-11T11:32:39.066Z,18.36
2018-06-11T11:33:39.554Z,18.37
2018-06-11T11:35:32.448Z,18.39
2018-06-11T11:36:31.573Z,18.36
2018-06-11T11:38:24.923Z,18.39
2018-06-11T11:39:24.909Z,18.43
2018-06-11T11:40:24.972Z,18.47
2018-06-11T11:41:24.889Z,18.50
2018-06-11T11:42:25.199Z,18.46
2018-06-11T11:43:25.805Z,18.52
2018-06-11T11:44:24.869Z,18.54
2018-06-11T11:45:24.864Z,18.54
2018-06-11T11:46:24.867Z,18.61
2018-06-11T11:47:24.898Z,18.70
2018-06-11T11:48:24.903Z,18.68
2018-06-11T11:49:24.880Z,18.72
2018-06-11T11:50:24.887Z,18.64
2018-06-11T11:51:24.887Z,18.62
2018-06-11T11:52:24.906Z,18.62
2018-06-11T11:53:24.901Z,18.65
2018-06-11T11:54:24.903Z,18.68
2018-06-11T11:55:24.905Z,18.64
2018-06-11T11:56:24.930Z,18.65
2018-06-11T11:57:24.937Z,18.74
2018-06-11T11:58:24.926Z,18.67
2018-06-11T11:59:24.925Z,18.72
2018-06-11T12:00:24.924Z,18.73
2018-06-11T12:01:24.938Z,18.73
2018-06-11T12:02:24.931Z,18.70
2018-06-11T12:03:24.942Z,18.64
2018-06-11T12:04:24.944Z,18.61
2018-06-11T12:05:24.943Z,18.58
2018-06-11T12:06:24.950Z,18.61
2018-06-11T12:07:24.953Z,18.62
2018-06-11T12:08:24.960Z,18.68
2018-06-11T12:09:24.977Z,18.68
2018-06-11T12:10:24.970Z,18.67
2018-06-11T12:11:32.543Z,18.64
2018-06-11T12:13:18.756Z,18.64
2018-06-11T12:14:17.918Z,18.59
2018-06-11T12:16:11.110Z,18.72
2018-06-11T12:17:10.826Z,18.73
2018-06-11T12:19:04.134Z,18.79
2018-06-11T12:20:03.690Z,18.79
2018-06-11T12:21:56.827Z,18.79
2018-06-11T12:22:56.743Z,18.86
2018-06-11T12:24:49.765Z,18.84
2018-06-11T12:25:49.485Z,18.82
2018-06-11T12:27:43.262Z,18.91
2018-06-11T12:28:42.960Z,19.01
2018-06-11T12:30:36.119Z,18.87
2018-06-11T12:31:35.705Z,18.90
2018-06-11T12:33:28.803Z,18.90
2018-06-11T12:34:28.604Z,18.92
2018-06-11T12:36:22.281Z,18.91
2018-06-11T12:37:21.509Z,18.99
2018-06-11T12:39:14.339Z,18.97
2018-06-11T12:40:14.349Z,18.97
2018-06-11T12:42:07.245Z,19.01
2018-06-11T12:43:07.312Z,19.06
2018-06-11T12:45:00.121Z,19.10
2018-06-11T12:46:00.131Z,19.20
2018-06-11T12:47:54.261Z,19.36
2018-06-11T12:48:53.988Z,19.48
2018-06-11T12:50:47.117Z,19.69
2018-06-11T12:51:46.953Z,19.69
2018-06-11T12:53:39.834Z,19.60
2018-06-11T12:54:39.707Z,19.58
2018-06-11T12:56:32.603Z,19.60
2018-06-11T12:57:32.713Z,19.60
2018-06-11T12:59:25.534Z,19.47
2018-06-11T13:00:25.486Z,19.50
2018-06-11T13:02:18.396Z,19.55
2018-06-11T13:03:18.383Z,19.57
2018-06-11T13:05:11.428Z,19.60
2018-06-11T13:06:11.278Z,19.70
2018-06-11T13:08:04.157Z,19.76
2018-06-11T13:09:04.116Z,19.72
2018-06-11T13:10:57.069Z,19.78
2018-06-11T13:11:57.020Z,19.80
2018-06-11T13:12:57.032Z,19.72
2018-06-11T13:13:57.300Z,19.65
2018-06-11T13:14:57.008Z,19.66
2018-06-11T13:15:57.017Z,19.63
2018-06-11T13:16:57.011Z,19.69
2018-06-11T13:17:57.026Z,19.63
2018-06-11T13:18:57.020Z,19.63
2018-06-11T13:19:57.024Z,19.65
2018-06-11T13:20:59.538Z,19.69
2018-06-11T13:21:57.129Z,19.80
2018-06-11T13:22:57.038Z,19.78
2018-06-11T13:23:57.043Z,19.86
2018-06-11T13:25:00.061Z,19.87
2018-06-11T13:25:57.060Z,19.86
2018-06-11T13:26:57.055Z,19.86
2018-06-11T13:27:57.070Z,19.87
2018-06-11T13:28:57.065Z,19.90